sensor_id;sensor_type;location;lat;lon;timestamp;temperature;humidity
31991;DHT22;18508;49.386;8.370;2022-12-11T00:00:55;-3.30;99.90
31991;DHT22;18508;49.386;8.370;2022-12-11T00:03:23;-3.30;99.90
31991;DHT22;18508;49.386;8.370;2022-12-11T00:05:51;-3.30;99.90
31991;DHT22;18508;49.386;8.370;2022-12-11T00:08:19;-3.30;99.90
31991;DHT22;18508;49.386;8.370;2022-12-11T00:10:48;-3.30;99.90
31991;DHT22;18508;49.386;8.370;2022-12-11T00:13:18;-3.30;99.90
31991;DHT22;18508;49.386;8.370;2022-12-11T00:15:45;-3.20;99.90
31991;DHT22;18508;49.386;8.370;2022-12-11T00:18:14;-3.10;99.90
31991;DHT22;18508;49.386;8.370;2022-12-11T00:20:42;-3.10;99.90
31991;DHT22;18508;49.386;8.370;2022-12-11T00:23:10;-3.00;99.90
31991;DHT22;18508;49.386;8.370;2022-12-11T00:25:40;-2.90;99.90
31991;DHT22;18508;49.386;8.370;2022-12-11T00:28:09;-2.80;99.90
31991;DHT22;18508;49.386;8.370;2022-12-11T00:30:40;-2.80;99.90
31991;DHT22;18508;49.386;8.370;2022-12-11T00:33:09;-2.70;99.90
31991;DHT22;18508;49.386;8.370;2022-12-11T00:35:37;-2.60;99.90
31991;DHT22;18508;49.386;8.370;2022-12-11T00:38:06;-2.60;99.90
31991;DHT22;18508;49.386;8.370;2022-12-11T00:40:34;-2.50;99.90
31991;DHT22;18508;49.386;8.370;2022-12-11T00:43:03;-2.50;99.90
31991;DHT22;18508;49.386;8.370;2022-12-11T00:45:35;-2.40;99.90
31991;DHT22;18508;49.386;8.370;2022-12-11T00:48:05;-2.30;99.90
31991;DHT22;18508;49.386;8.370;2022-12-11T00:50:35;-2.30;99.90
31991;DHT22;18508;49.386;8.370;2022-12-11T00:53:04;-2.30;99.90
31991;DHT22;18508;49.386;8.370;2022-12-11T00:55:36;-2.20;99.90
31991;DHT22;18508;49.386;8.370;2022-12-11T00:58:04;-2.10;99.90
31991;DHT22;18508;49.386;8.370;2022-12-11T01:00:32;-2.00;99.90
31991;DHT22;18508;49.386;8.370;2022-12-11T01:03:00;-1.90;99.90
31991;DHT22;18508;49.386;8.370;2022-12-11T01:05:30;-1.80;99.90
31991;DHT22;18508;49.386;8.370;2022-12-11T01:07:58;-1.80;99.90
31991;DHT22;18508;49.386;8.370;2022-12-11T01:10:26;-1.70;99.90
31991;DHT22;18508;49.386;8.370;2022-12-11T01:12:57;-1.70;99.90
31991;DHT22;18508;49.386;8.370;2022-12-11T01:15:26;-1.50;99.90
31991;DHT22;18508;49.386;8.370;2022-12-11T01:17:55;-1.50;99.90
31991;DHT22;18508;49.386;8.370;2022-12-11T01:20:26;-1.50;99.90
31991;DHT22;18508;49.386;8.370;2022-12-11T01:22:57;-1.50;99.90
31991;DHT22;18508;49.386;8.370;2022-12-11T01:25:25;-1.50;99.90
31991;DHT22;18508;49.386;8.370;2022-12-11T01:27:54;-1.50;99.90
31991;DHT22;18508;49.386;8.370;2022-12-11T01:30:24;-1.50;99.90
31991;DHT22;18508;49.386;8.370;2022-12-11T01:32:52;-1.70;99.90
31991;DHT22;18508;49.386;8.370;2022-12-11T01:35:21;-1.80;99.90
31991;DHT22;18508;49.386;8.370;2022-12-11T01:37:49;-1.90;99.90
31991;DHT22;18508;49.386;8.370;2022-12-11T01:40:19;-1.80;99.90
31991;DHT22;18508;49.386;8.370;2022-12-11T01:42:48;-1.80;99.90
31991;DHT22;18508;49.386;8.370;2022-12-11T01:45:35;-1.80;99.90
31991;DHT22;18508;49.386;8.370;2022-12-11T01:48:08;-1.70;99.90
31991;DHT22;18508;49.386;8.370;2022-12-11T01:50:41;-1.70;99.90
31991;DHT22;18508;49.386;8.370;2022-12-11T01:53:14;-1.70;99.90
31991;DHT22;18508;49.386;8.370;2022-12-11T01:55:45;-1.60;99.90
31991;DHT22;18508;49.386;8.370;2022-12-11T01:58:15;-1.60;99.90
31991;DHT22;18508;49.386;8.370;2022-12-11T02:00:43;-1.60;99.90
31991;DHT22;18508;49.386;8.370;2022-12-11T02:03:11;-1.50;99.90
31991;DHT22;18508;49.386;8.370;2022-12-11T02:05:39;-1.40;99.90
31991;DHT22;18508;49.386;8.370;2022-12-11T02:08:08;-1.40;99.90
31991;DHT22;18508;49.386;8.370;2022-12-11T02:10:47;-1.40;99.90
31991;DHT22;18508;49.386;8.370;2022-12-11T02:13:20;-1.40;99.90
31991;DHT22;18508;49.386;8.370;2022-12-11T02:15:54;-1.50;99.90
31991;DHT22;18508;49.386;8.370;2022-12-11T02:18:30;-1.60;99.90
31991;DHT22;18508;49.386;8.370;2022-12-11T02:21:04;-1.50;99.90
31991;DHT22;18508;49.386;8.370;2022-12-11T02:23:56;-1.60;99.90
31991;DHT22;18508;49.386;8.370;2022-12-11T02:26:44;-1.60;99.90
31991;DHT22;18508;49.386;8.370;2022-12-11T02:29:19;-1.80;99.90
31991;DHT22;18508;49.386;8.370;2022-12-11T02:31:50;-1.90;99.90
31991;DHT22;18508;49.386;8.370;2022-12-11T02:34:25;-1.80;99.90
31991;DHT22;18508;49.386;8.370;2022-12-11T02:37:00;-1.80;99.90
31991;DHT22;18508;49.386;8.370;2022-12-11T02:39:30;-1.80;99.90
31991;DHT22;18508;49.386;8.370;2022-12-11T02:41:59;-1.80;99.90
31991;DHT22;18508;49.386;8.370;2022-12-11T02:44:31;-1.70;99.90
31991;DHT22;18508;49.386;8.370;2022-12-11T02:47:02;-1.70;99.90
31991;DHT22;18508;49.386;8.370;2022-12-11T02:49:32;-1.60;99.90
31991;DHT22;18508;49.386;8.370;2022-12-11T02:52:02;-1.50;99.90
31991;DHT22;18508;49.386;8.370;2022-12-11T02:54:32;-1.40;99.90
31991;DHT22;18508;49.386;8.370;2022-12-11T02:57:05;-1.40;99.90
31991;DHT22;18508;49.386;8.370;2022-12-11T02:59:38;-1.40;99.90
31991;DHT22;18508;49.386;8.370;2022-12-11T03:02:07;-1.40;99.90
31991;DHT22;18508;49.386;8.370;2022-12-11T03:04:35;-1.30;99.90
31991;DHT22;18508;49.386;8.370;2022-12-11T03:07:07;-1.20;99.90
31991;DHT22;18508;49.386;8.370;2022-12-11T03:09:40;-1.30;99.90
31991;DHT22;18508;49.386;8.370;2022-12-11T03:12:12;-1.30;99.90
31991;DHT22;18508;49.386;8.370;2022-12-11T03:14:43;-1.30;99.90
31991;DHT22;18508;49.386;8.370;2022-12-11T03:17:14;-1.30;99.90
31991;DHT22;18508;49.386;8.370;2022-12-11T03:19:47;-1.40;99.90
31991;DHT22;18508;49.386;8.370;2022-12-11T03:22:22;-1.40;99.90
31991;DHT22;18508;49.386;8.370;2022-12-11T03:24:59;-1.40;99.90
31991;DHT22;18508;49.386;8.370;2022-12-11T03:27:33;-1.50;99.90
31991;DHT22;18508;49.386;8.370;2022-12-11T03:30:07;-1.50;99.90
31991;DHT22;18508;49.386;8.370;2022-12-11T03:32:39;-1.50;99.90
31991;DHT22;18508;49.386;8.370;2022-12-11T03:35:13;-1.60;99.90
31991;DHT22;18508;49.386;8.370;2022-12-11T03:37:44;-1.50;99.90
31991;DHT22;18508;49.386;8.370;2022-12-11T03:40:16;-1.60;99.90
31991;DHT22;18508;49.386;8.370;2022-12-11T03:42:49;-1.30;99.90
31991;DHT22;18508;49.386;8.370;2022-12-11T03:45:20;-1.60;99.90
31991;DHT22;18508;49.386;8.370;2022-12-11T03:47:50;-1.30;99.90
31991;DHT22;18508;49.386;8.370;2022-12-11T03:50:21;-1.50;99.90
31991;DHT22;18508;49.386;8.370;2022-12-11T03:52:50;-1.50;99.90
31991;DHT22;18508;49.386;8.370;2022-12-11T03:55:20;-1.60;99.90
31991;DHT22;18508;49.386;8.370;2022-12-11T03:57:49;-1.40;99.90
31991;DHT22;18508;49.386;8.370;2022-12-11T04:00:20;-1.50;99.90
31991;DHT22;18508;49.386;8.370;2022-12-11T04:02:49;-1.40;99.90
31991;DHT22;18508;49.386;8.370;2022-12-11T04:05:38;-1.40;99.90
31991;DHT22;18508;49.386;8.370;2022-12-11T04:08:07;-1.40;99.90
31991;DHT22;18508;49.386;8.370;2022-12-11T04:10:35;-1.60;99.90
31991;DHT22;18508;49.386;8.370;2022-12-11T04:13:03;-1.50;99.90
31991;DHT22;18508;49.386;8.370;2022-12-11T04:15:32;-1.80;99.90
31991;DHT22;18508;49.386;8.370;2022-12-11T04:18:00;-1.30;99.90
31991;DHT22;18508;49.386;8.370;2022-12-11T04:20:45;-1.70;99.90
31991;DHT22;18508;49.386;8.370;2022-12-11T04:23:31;-1.40;99.90
31991;DHT22;18508;49.386;8.370;2022-12-11T04:26:18;-1.80;99.90
31991;DHT22;18508;49.386;8.370;2022-12-11T04:28:47;-1.50;99.90
31991;DHT22;18508;49.386;8.370;2022-12-11T04:31:19;-1.30;99.90
31991;DHT22;18508;49.386;8.370;2022-12-11T04:33:47;-1.50;99.90
31991;DHT22;18508;49.386;8.370;2022-12-11T04:36:15;-1.70;99.90
31991;DHT22;18508;49.386;8.370;2022-12-11T04:38:43;-1.00;99.90
31991;DHT22;18508;49.386;8.370;2022-12-11T04:41:13;-1.50;99.90
31991;DHT22;18508;49.386;8.370;2022-12-11T04:43:41;-1.30;99.90
31991;DHT22;18508;49.386;8.370;2022-12-11T04:46:12;-1.60;99.90
31991;DHT22;18508;49.386;8.370;2022-12-11T04:48:42;-1.70;99.90
31991;DHT22;18508;49.386;8.370;2022-12-11T04:51:11;-1.80;99.90
31991;DHT22;18508;49.386;8.370;2022-12-11T04:53:39;-1.80;99.90
31991;DHT22;18508;49.386;8.370;2022-12-11T04:56:09;-1.50;99.90
31991;DHT22;18508;49.386;8.370;2022-12-11T04:58:37;-1.80;99.90
31991;DHT22;18508;49.386;8.370;2022-12-11T05:01:07;-1.50;99.90
31991;DHT22;18508;49.386;8.370;2022-12-11T05:03:35;-1.60;99.90
31991;DHT22;18508;49.386;8.370;2022-12-11T05:06:05;-1.20;99.90
31991;DHT22;18508;49.386;8.370;2022-12-11T05:08:35;-1.90;99.90
31991;DHT22;18508;49.386;8.370;2022-12-11T05:11:08;-1.40;99.90
31991;DHT22;18508;49.386;8.370;2022-12-11T05:13:36;-1.30;99.90
31991;DHT22;18508;49.386;8.370;2022-12-11T05:16:05;-1.60;99.90
31991;DHT22;18508;49.386;8.370;2022-12-11T05:18:34;-1.40;99.90
31991;DHT22;18508;49.386;8.370;2022-12-11T05:21:06;-1.80;99.90
31991;DHT22;18508;49.386;8.370;2022-12-11T05:23:34;-1.30;99.90
31991;DHT22;18508;49.386;8.370;2022-12-11T05:26:04;-1.60;99.90
31991;DHT22;18508;49.386;8.370;2022-12-11T05:28:35;-1.60;99.90
31991;DHT22;18508;49.386;8.370;2022-12-11T05:31:05;-0.90;99.90
31991;DHT22;18508;49.386;8.370;2022-12-11T05:33:33;-1.60;99.90
31991;DHT22;18508;49.386;8.370;2022-12-11T05:36:02;-1.00;99.90
31991;DHT22;18508;49.386;8.370;2022-12-11T05:38:31;-1.70;99.90
31991;DHT22;18508;49.386;8.370;2022-12-11T05:41:02;-1.70;99.90
31991;DHT22;18508;49.386;8.370;2022-12-11T05:43:32;-1.70;99.90
31991;DHT22;18508;49.386;8.370;2022-12-11T05:46:05;-1.70;99.90
31991;DHT22;18508;49.386;8.370;2022-12-11T05:48:34;-1.70;99.90
31991;DHT22;18508;49.386;8.370;2022-12-11T05:51:04;-1.60;99.90
31991;DHT22;18508;49.386;8.370;2022-12-11T05:53:34;-1.60;99.90
31991;DHT22;18508;49.386;8.370;2022-12-11T05:56:05;-1.60;99.90
31991;DHT22;18508;49.386;8.370;2022-12-11T05:58:34;-1.60;99.90
31991;DHT22;18508;49.386;8.370;2022-12-11T06:01:06;-1.60;99.90
31991;DHT22;18508;49.386;8.370;2022-12-11T06:06:04;-1.50;99.90
31991;DHT22;18508;49.386;8.370;2022-12-11T06:08:34;-1.50;99.90
31991;DHT22;18508;49.386;8.370;2022-12-11T06:16:00;-1.70;99.90
31991;DHT22;18508;49.386;8.370;2022-12-11T06:18:29;-1.40;99.90
31991;DHT22;18508;49.386;8.370;2022-12-11T06:20:57;-1.90;99.90
31991;DHT22;18508;49.386;8.370;2022-12-11T06:25:55;-1.70;99.90
31991;DHT22;18508;49.386;8.370;2022-12-11T06:28:23;-1.70;99.90
31991;DHT22;18508;49.386;8.370;2022-12-11T06:30:51;-1.70;99.90
31991;DHT22;18508;49.386;8.370;2022-12-11T06:33:19;-1.60;99.90
31991;DHT22;18508;49.386;8.370;2022-12-11T06:35:47;-1.60;99.90
31991;DHT22;18508;49.386;8.370;2022-12-11T06:38:15;-1.60;99.90
31991;DHT22;18508;49.386;8.370;2022-12-11T06:40:43;-1.60;99.90
31991;DHT22;18508;49.386;8.370;2022-12-11T06:43:13;-1.60;99.90
31991;DHT22;18508;49.386;8.370;2022-12-11T06:45:41;-1.60;99.90
31991;DHT22;18508;49.386;8.370;2022-12-11T06:48:09;-1.60;99.90
31991;DHT22;18508;49.386;8.370;2022-12-11T06:50:37;-1.70;99.90
31991;DHT22;18508;49.386;8.370;2022-12-11T06:53:05;-1.60;99.90
31991;DHT22;18508;49.386;8.370;2022-12-11T06:55:34;-1.60;99.90
31991;DHT22;18508;49.386;8.370;2022-12-11T06:58:02;-1.70;99.90
31991;DHT22;18508;49.386;8.370;2022-12-11T07:00:31;-1.70;99.90
31991;DHT22;18508;49.386;8.370;2022-12-11T07:03:01;-1.70;99.90
31991;DHT22;18508;49.386;8.370;2022-12-11T07:05:30;-1.70;99.90
31991;DHT22;18508;49.386;8.370;2022-12-11T07:07:58;-1.60;99.90
31991;DHT22;18508;49.386;8.370;2022-12-11T07:10:26;-1.70;99.90
31991;DHT22;18508;49.386;8.370;2022-12-11T07:12:55;-1.70;99.90
31991;DHT22;18508;49.386;8.370;2022-12-11T07:15:23;-1.70;99.90
31991;DHT22;18508;49.386;8.370;2022-12-11T07:17:52;-1.70;99.90
31991;DHT22;18508;49.386;8.370;2022-12-11T07:20:20;-1.80;99.90
31991;DHT22;18508;49.386;8.370;2022-12-11T07:22:48;-1.80;99.90
31991;DHT22;18508;49.386;8.370;2022-12-11T07:25:16;-1.80;99.90
31991;DHT22;18508;49.386;8.370;2022-12-11T07:27:44;-1.80;99.90
31991;DHT22;18508;49.386;8.370;2022-12-11T07:30:13;-1.80;99.90
31991;DHT22;18508;49.386;8.370;2022-12-11T07:32:41;-1.80;99.90
31991;DHT22;18508;49.386;8.370;2022-12-11T07:35:10;-1.80;99.90
31991;DHT22;18508;49.386;8.370;2022-12-11T07:37:39;-1.80;99.90
31991;DHT22;18508;49.386;8.370;2022-12-11T07:40:09;-1.90;99.90
31991;DHT22;18508;49.386;8.370;2022-12-11T07:42:37;-1.80;99.90
31991;DHT22;18508;49.386;8.370;2022-12-11T07:45:11;-1.80;99.90
31991;DHT22;18508;49.386;8.370;2022-12-11T07:47:40;-1.80;99.90
31991;DHT22;18508;49.386;8.370;2022-12-11T07:50:10;-1.90;99.90
31991;DHT22;18508;49.386;8.370;2022-12-11T07:52:38;-1.90;99.90
31991;DHT22;18508;49.386;8.370;2022-12-11T07:55:06;-1.90;99.90
31991;DHT22;18508;49.386;8.370;2022-12-11T07:57:35;-1.80;99.90
31991;DHT22;18508;49.386;8.370;2022-12-11T08:00:04;-1.80;99.90
31991;DHT22;18508;49.386;8.370;2022-12-11T08:02:32;-1.80;99.90
31991;DHT22;18508;49.386;8.370;2022-12-11T08:05:03;-1.70;99.90
31991;DHT22;18508;49.386;8.370;2022-12-11T08:07:34;-1.70;99.90
31991;DHT22;18508;49.386;8.370;2022-12-11T08:10:03;-1.60;99.90
31991;DHT22;18508;49.386;8.370;2022-12-11T08:12:31;-1.60;99.90
31991;DHT22;18508;49.386;8.370;2022-12-11T08:14:59;-1.90;99.90
31991;DHT22;18508;49.386;8.370;2022-12-11T08:17:27;-1.50;99.90
31991;DHT22;18508;49.386;8.370;2022-12-11T08:20:02;-1.40;99.90
31991;DHT22;18508;49.386;8.370;2022-12-11T08:22:30;-1.30;99.90
31991;DHT22;18508;49.386;8.370;2022-12-11T08:25:00;-1.30;99.90
31991;DHT22;18508;49.386;8.370;2022-12-11T08:27:28;-1.20;99.90
31991;DHT22;18508;49.386;8.370;2022-12-11T08:29:56;-1.00;99.90
31991;DHT22;18508;49.386;8.370;2022-12-11T08:32:24;-1.00;99.90
31991;DHT22;18508;49.386;8.370;2022-12-11T08:34:52;-0.80;99.90
31991;DHT22;18508;49.386;8.370;2022-12-11T08:37:20;-0.90;99.90
31991;DHT22;18508;49.386;8.370;2022-12-11T08:39:48;-0.80;99.90
31991;DHT22;18508;49.386;8.370;2022-12-11T08:42:18;-0.70;99.90
31991;DHT22;18508;49.386;8.370;2022-12-11T08:44:47;-0.70;99.90
31991;DHT22;18508;49.386;8.370;2022-12-11T08:47:15;-0.70;99.90
31991;DHT22;18508;49.386;8.370;2022-12-11T08:49:43;-0.80;99.90
31991;DHT22;18508;49.386;8.370;2022-12-11T08:52:12;-0.60;99.90
31991;DHT22;18508;49.386;8.370;2022-12-11T08:54:40;-0.50;99.90
31991;DHT22;18508;49.386;8.370;2022-12-11T08:57:08;-0.40;99.90
31991;DHT22;18508;49.386;8.370;2022-12-11T08:59:38;-0.40;99.90
31991;DHT22;18508;49.386;8.370;2022-12-11T09:02:10;-0.20;99.90
31991;DHT22;18508;49.386;8.370;2022-12-11T09:04:39;0.00;99.90
31991;DHT22;18508;49.386;8.370;2022-12-11T09:07:07;0.10;99.90
31991;DHT22;18508;49.386;8.370;2022-12-11T09:09:38;0.20;99.90
31991;DHT22;18508;49.386;8.370;2022-12-11T09:12:06;0.30;99.90
31991;DHT22;18508;49.386;8.370;2022-12-11T09:14:34;0.40;99.90
31991;DHT22;18508;49.386;8.370;2022-12-11T09:17:04;0.40;99.90
31991;DHT22;18508;49.386;8.370;2022-12-11T09:19:32;0.40;99.90
31991;DHT22;18508;49.386;8.370;2022-12-11T09:22:00;0.50;99.90
31991;DHT22;18508;49.386;8.370;2022-12-11T09:24:28;0.50;99.90
31991;DHT22;18508;49.386;8.370;2022-12-11T09:26:56;0.50;99.90
31991;DHT22;18508;49.386;8.370;2022-12-11T09:29:24;0.60;99.90
31991;DHT22;18508;49.386;8.370;2022-12-11T09:31:52;0.70;99.90
31991;DHT22;18508;49.386;8.370;2022-12-11T09:34:22;0.70;99.90
31991;DHT22;18508;49.386;8.370;2022-12-11T09:36:55;0.80;99.90
31991;DHT22;18508;49.386;8.370;2022-12-11T09:39:23;0.90;99.90
31991;DHT22;18508;49.386;8.370;2022-12-11T09:41:55;0.90;99.90
31991;DHT22;18508;49.386;8.370;2022-12-11T09:44:30;1.00;99.90
31991;DHT22;18508;49.386;8.370;2022-12-11T09:46:59;1.00;99.90
31991;DHT22;18508;49.386;8.370;2022-12-11T09:49:34;1.00;99.90
31991;DHT22;18508;49.386;8.370;2022-12-11T09:52:10;0.90;99.90
31991;DHT22;18508;49.386;8.370;2022-12-11T09:54:44;0.80;99.90
31991;DHT22;18508;49.386;8.370;2022-12-11T09:57:24;1.00;99.90
31991;DHT22;18508;49.386;8.370;2022-12-11T10:00:03;1.00;99.90
31991;DHT22;18508;49.386;8.370;2022-12-11T10:02:45;1.00;99.90
31991;DHT22;18508;49.386;8.370;2022-12-11T10:05:21;1.00;99.90
31991;DHT22;18508;49.386;8.370;2022-12-11T10:08:00;1.00;99.90
31991;DHT22;18508;49.386;8.370;2022-12-11T10:10:37;1.20;99.90
31991;DHT22;18508;49.386;8.370;2022-12-11T10:13:16;1.20;99.90
31991;DHT22;18508;49.386;8.370;2022-12-11T10:15:51;1.40;99.90
31991;DHT22;18508;49.386;8.370;2022-12-11T10:18:24;1.50;99.90
31991;DHT22;18508;49.386;8.370;2022-12-11T10:20:54;1.40;99.90
31991;DHT22;18508;49.386;8.370;2022-12-11T10:23:26;1.30;99.90
31991;DHT22;18508;49.386;8.370;2022-12-11T10:26:01;1.50;99.90
31991;DHT22;18508;49.386;8.370;2022-12-11T10:28:29;1.60;99.90
31991;DHT22;18508;49.386;8.370;2022-12-11T10:31:05;1.50;99.90
31991;DHT22;18508;49.386;8.370;2022-12-11T10:33:43;1.60;99.90
31991;DHT22;18508;49.386;8.370;2022-12-11T10:36:19;1.80;99.90
31991;DHT22;18508;49.386;8.370;2022-12-11T10:38:49;1.80;99.90
31991;DHT22;18508;49.386;8.370;2022-12-11T10:41:19;1.80;99.90
31991;DHT22;18508;49.386;8.370;2022-12-11T10:43:51;2.00;99.90
31991;DHT22;18508;49.386;8.370;2022-12-11T10:46:21;2.00;99.90
31991;DHT22;18508;49.386;8.370;2022-12-11T10:48:52;2.00;99.90
31991;DHT22;18508;49.386;8.370;2022-12-11T10:51:23;2.00;99.90
31991;DHT22;18508;49.386;8.370;2022-12-11T10:53:54;2.10;99.90
31991;DHT22;18508;49.386;8.370;2022-12-11T10:56:32;2.20;99.90
31991;DHT22;18508;49.386;8.370;2022-12-11T10:59:03;2.10;99.90
31991;DHT22;18508;49.386;8.370;2022-12-11T11:01:31;2.20;99.90
31991;DHT22;18508;49.386;8.370;2022-12-11T11:04:03;2.20;99.90
31991;DHT22;18508;49.386;8.370;2022-12-11T11:06:34;2.20;99.90
31991;DHT22;18508;49.386;8.370;2022-12-11T11:09:02;2.20;99.90
31991;DHT22;18508;49.386;8.370;2022-12-11T11:11:32;2.10;99.90
31991;DHT22;18508;49.386;8.370;2022-12-11T11:14:13;2.20;99.90
31991;DHT22;18508;49.386;8.370;2022-12-11T11:16:42;2.10;99.90
31991;DHT22;18508;49.386;8.370;2022-12-11T11:19:17;2.20;99.90
31991;DHT22;18508;49.386;8.370;2022-12-11T11:21:51;2.10;99.90
31991;DHT22;18508;49.386;8.370;2022-12-11T11:24:26;2.00;99.90
31991;DHT22;18508;49.386;8.370;2022-12-11T11:26:55;2.00;99.90
31991;DHT22;18508;49.386;8.370;2022-12-11T11:29:39;2.20;99.90
31991;DHT22;18508;49.386;8.370;2022-12-11T11:32:16;2.20;99.90
31991;DHT22;18508;49.386;8.370;2022-12-11T11:34:46;2.30;99.90
31991;DHT22;18508;49.386;8.370;2022-12-11T11:37:23;2.40;99.90
31991;DHT22;18508;49.386;8.370;2022-12-11T11:39:54;2.50;99.90
31991;DHT22;18508;49.386;8.370;2022-12-11T11:42:29;2.60;82.60
31991;DHT22;18508;49.386;8.370;2022-12-11T11:45:03;2.70;60.80
31991;DHT22;18508;49.386;8.370;2022-12-11T11:47:33;2.60;99.90
31991;DHT22;18508;49.386;8.370;2022-12-11T11:50:07;2.60;33.60
31991;DHT22;18508;49.386;8.370;2022-12-11T11:52:43;2.70;26.90
31991;DHT22;18508;49.386;8.370;2022-12-11T11:55:17;2.60;37.40
31991;DHT22;18508;49.386;8.370;2022-12-11T11:57:53;2.70;29.40
31991;DHT22;18508;49.386;8.370;2022-12-11T12:00:23;2.70;35.40
31991;DHT22;18508;49.386;8.370;2022-12-11T12:03:00;2.60;57.70
31991;DHT22;18508;49.386;8.370;2022-12-11T12:05:35;2.60;94.30
31991;DHT22;18508;49.386;8.370;2022-12-11T12:08:11;2.70;52.40
31991;DHT22;18508;49.386;8.370;2022-12-11T12:10:45;2.50;36.50
31991;DHT22;18508;49.386;8.370;2022-12-11T12:13:20;2.50;67.00
31991;DHT22;18508;49.386;8.370;2022-12-11T12:16:19;2.70;23.20
31991;DHT22;18508;49.386;8.370;2022-12-11T12:19:14;2.50;48.50
31991;DHT22;18508;49.386;8.370;2022-12-11T12:21:48;2.60;94.00
31991;DHT22;18508;49.386;8.370;2022-12-11T12:24:22;2.30;98.80
31991;DHT22;18508;49.386;8.370;2022-12-11T12:26:59;2.50;59.40
31991;DHT22;18508;49.386;8.370;2022-12-11T12:29:42;2.50;94.10
31991;DHT22;18508;49.386;8.370;2022-12-11T12:32:18;2.50;94.60
31991;DHT22;18508;49.386;8.370;2022-12-11T12:35:00;2.50;70.80
31991;DHT22;18508;49.386;8.370;2022-12-11T12:37:43;2.70;10.40
31991;DHT22;18508;49.386;8.370;2022-12-11T12:40:22;2.60;33.00
31991;DHT22;18508;49.386;8.370;2022-12-11T12:42:59;2.60;95.20
31991;DHT22;18508;49.386;8.370;2022-12-11T12:45:34;2.60;99.90
31991;DHT22;18508;49.386;8.370;2022-12-11T12:48:07;2.60;99.90
31991;DHT22;18508;49.386;8.370;2022-12-11T12:50:39;2.40;99.90
31991;DHT22;18508;49.386;8.370;2022-12-11T12:53:15;2.50;99.90
31991;DHT22;18508;49.386;8.370;2022-12-11T12:55:47;2.60;96.40
31991;DHT22;18508;49.386;8.370;2022-12-11T12:58:25;2.70;98.90
31991;DHT22;18508;49.386;8.370;2022-12-11T13:00:53;2.60;99.90
31991;DHT22;18508;49.386;8.370;2022-12-11T13:03:23;2.60;99.90
31991;DHT22;18508;49.386;8.370;2022-12-11T13:05:57;2.60;99.90
31991;DHT22;18508;49.386;8.370;2022-12-11T13:08:27;2.60;65.40
31991;DHT22;18508;49.386;8.370;2022-12-11T13:11:01;2.60;99.90
31991;DHT22;18508;49.386;8.370;2022-12-11T13:13:33;2.60;98.40
31991;DHT22;18508;49.386;8.370;2022-12-11T13:16:23;2.50;30.50
31991;DHT22;18508;49.386;8.370;2022-12-11T13:18:52;2.60;92.10
31991;DHT22;18508;49.386;8.370;2022-12-11T13:21:30;2.60;93.90
31991;DHT22;18508;49.386;8.370;2022-12-11T13:24:16;2.50;94.20
31991;DHT22;18508;49.386;8.370;2022-12-11T13:26:46;2.50;99.90
31991;DHT22;18508;49.386;8.370;2022-12-11T13:29:31;2.50;99.90
31991;DHT22;18508;49.386;8.370;2022-12-11T13:32:01;2.50;95.50
31991;DHT22;18508;49.386;8.370;2022-12-11T13:34:32;2.40;67.50
31991;DHT22;18508;49.386;8.370;2022-12-11T13:37:03;2.50;99.90
31991;DHT22;18508;49.386;8.370;2022-12-11T13:39:33;2.40;99.90
31991;DHT22;18508;49.386;8.370;2022-12-11T13:42:05;2.30;99.90
31991;DHT22;18508;49.386;8.370;2022-12-11T13:44:40;2.20;99.90
31991;DHT22;18508;49.386;8.370;2022-12-11T13:47:13;2.20;99.90
31991;DHT22;18508;49.386;8.370;2022-12-11T13:49:42;2.30;99.90
31991;DHT22;18508;49.386;8.370;2022-12-11T13:52:16;2.40;99.90
31991;DHT22;18508;49.386;8.370;2022-12-11T13:54:48;2.40;99.90
31991;DHT22;18508;49.386;8.370;2022-12-11T13:57:20;2.60;99.90
31991;DHT22;18508;49.386;8.370;2022-12-11T13:59:50;2.50;99.90
31991;DHT22;18508;49.386;8.370;2022-12-11T14:02:22;2.40;99.90
31991;DHT22;18508;49.386;8.370;2022-12-11T14:04:54;2.40;99.90
31991;DHT22;18508;49.386;8.370;2022-12-11T14:07:26;2.30;99.90
31991;DHT22;18508;49.386;8.370;2022-12-11T14:09:59;2.50;99.90
31991;DHT22;18508;49.386;8.370;2022-12-11T14:12:30;2.20;99.90
31991;DHT22;18508;49.386;8.370;2022-12-11T14:15:00;2.10;99.90
31991;DHT22;18508;49.386;8.370;2022-12-11T14:17:30;2.10;99.90
31991;DHT22;18508;49.386;8.370;2022-12-11T14:20:00;2.10;99.90
31991;DHT22;18508;49.386;8.370;2022-12-11T14:22:31;2.10;99.90
31991;DHT22;18508;49.386;8.370;2022-12-11T14:25:00;2.10;99.90
31991;DHT22;18508;49.386;8.370;2022-12-11T14:27:31;2.10;99.90
31991;DHT22;18508;49.386;8.370;2022-12-11T14:30:09;2.10;99.90
31991;DHT22;18508;49.386;8.370;2022-12-11T14:32:42;2.10;99.90
31991;DHT22;18508;49.386;8.370;2022-12-11T14:35:17;2.00;99.90
31991;DHT22;18508;49.386;8.370;2022-12-11T14:37:48;1.90;99.90
31991;DHT22;18508;49.386;8.370;2022-12-11T14:40:18;1.80;99.90
31991;DHT22;18508;49.386;8.370;2022-12-11T14:42:51;1.70;99.90
31991;DHT22;18508;49.386;8.370;2022-12-11T14:45:31;1.70;99.90
31991;DHT22;18508;49.386;8.370;2022-12-11T14:48:02;1.60;99.90
31991;DHT22;18508;49.386;8.370;2022-12-11T14:50:36;1.60;99.90
31991;DHT22;18508;49.386;8.370;2022-12-11T14:53:08;1.60;99.90
31991;DHT22;18508;49.386;8.370;2022-12-11T14:55:40;1.60;99.90
31991;DHT22;18508;49.386;8.370;2022-12-11T14:58:15;1.60;99.90
31991;DHT22;18508;49.386;8.370;2022-12-11T15:00:55;1.60;99.90
31991;DHT22;18508;49.386;8.370;2022-12-11T15:03:28;1.60;99.90
31991;DHT22;18508;49.386;8.370;2022-12-11T15:05:57;1.50;99.90
31991;DHT22;18508;49.386;8.370;2022-12-11T15:08:27;1.50;99.90
31991;DHT22;18508;49.386;8.370;2022-12-11T15:11:02;1.50;99.90
31991;DHT22;18508;49.386;8.370;2022-12-11T15:13:35;1.40;99.90
31991;DHT22;18508;49.386;8.370;2022-12-11T15:16:05;1.50;99.90
31991;DHT22;18508;49.386;8.370;2022-12-11T15:18:35;1.40;99.90
31991;DHT22;18508;49.386;8.370;2022-12-11T15:21:06;1.40;99.90
31991;DHT22;18508;49.386;8.370;2022-12-11T15:23:48;1.40;99.90
31991;DHT22;18508;49.386;8.370;2022-12-11T15:26:17;1.40;99.90
31991;DHT22;18508;49.386;8.370;2022-12-11T15:28:46;1.40;99.90
31991;DHT22;18508;49.386;8.370;2022-12-11T15:31:27;1.30;99.90
31991;DHT22;18508;49.386;8.370;2022-12-11T15:33:55;1.30;99.90
31991;DHT22;18508;49.386;8.370;2022-12-11T15:36:29;1.30;99.90
31991;DHT22;18508;49.386;8.370;2022-12-11T15:38:57;1.20;99.90
31991;DHT22;18508;49.386;8.370;2022-12-11T15:41:25;1.20;99.90
31991;DHT22;18508;49.386;8.370;2022-12-11T15:44:01;1.10;99.90
31991;DHT22;18508;49.386;8.370;2022-12-11T15:46:34;1.20;99.90
31991;DHT22;18508;49.386;8.370;2022-12-11T15:49:08;1.20;99.90
31991;DHT22;18508;49.386;8.370;2022-12-11T15:51:38;0.90;99.90
31991;DHT22;18508;49.386;8.370;2022-12-11T15:54:09;1.10;99.90
31991;DHT22;18508;49.386;8.370;2022-12-11T15:56:37;1.10;99.90
31991;DHT22;18508;49.386;8.370;2022-12-11T15:59:08;1.00;99.90
31991;DHT22;18508;49.386;8.370;2022-12-11T16:01:36;0.30;99.90
31991;DHT22;18508;49.386;8.370;2022-12-11T16:04:04;1.00;99.90
31991;DHT22;18508;49.386;8.370;2022-12-11T16:06:32;1.00;99.90
31991;DHT22;18508;49.386;8.370;2022-12-11T16:09:00;1.00;99.90
31991;DHT22;18508;49.386;8.370;2022-12-11T16:11:30;0.90;99.90
31991;DHT22;18508;49.386;8.370;2022-12-11T16:13:58;0.90;99.90